sensor_id;sensor_type;location;lat;lon;timestamp;P1;durP1;ratioP1;P2;durP2;ratioP2
5121;SDS011;2563;52.242;7.956;2022-11-25T00:02:14;11.97;;;2.70;;
5121;SDS011;2563;52.242;7.956;2022-11-25T00:04:40;9.37;;;2.83;;
5121;SDS011;2563;52.242;7.956;2022-11-25T00:07:05;8.50;;;2.43;;
5121;SDS011;2563;52.242;7.956;2022-11-25T00:09:31;11.33;;;2.80;;
5121;SDS011;2563;52.242;7.956;2022-11-25T00:11:56;14.63;;;3.07;;
5121;SDS011;2563;52.242;7.956;2022-11-25T00:14:21;13.93;;;3.00;;
5121;SDS011;2563;52.242;7.956;2022-11-25T00:16:47;16.50;;;2.37;;
5121;SDS011;2563;52.242;7.956;2022-11-25T00:19:12;14.90;;;3.10;;
5121;SDS011;2563;52.242;7.956;2022-11-25T00:21:37;13.53;;;2.83;;
5121;SDS011;2563;52.242;7.956;2022-11-25T00:24:04;10.90;;;2.77;;
5121;SDS011;2563;52.242;7.956;2022-11-25T00:26:31;13.63;;;3.30;;
5121;SDS011;2563;52.242;7.956;2022-11-25T00:28:59;15.47;;;2.93;;
5121;SDS011;2563;52.242;7.956;2022-11-25T00:31:27;13.90;;;3.40;;
5121;SDS011;2563;52.242;7.956;2022-11-25T00:33:56;14.93;;;3.30;;
5121;SDS011;2563;52.242;7.956;2022-11-25T00:36:23;12.70;;;2.50;;
5121;SDS011;2563;52.242;7.956;2022-11-25T00:38:54;8.63;;;2.07;;
5121;SDS011;2563;52.242;7.956;2022-11-25T00:41:21;9.90;;;2.43;;
5121;SDS011;2563;52.242;7.956;2022-11-25T00:44:10;13.00;;;3.10;;
5121;SDS011;2563;52.242;7.956;2022-11-25T00:46:55;14.33;;;3.30;;
5121;SDS011;2563;52.242;7.956;2022-11-25T00:49:21;13.90;;;3.93;;
5121;SDS011;2563;52.242;7.956;2022-11-25T00:51:47;11.23;;;2.43;;
5121;SDS011;2563;52.242;7.956;2022-11-25T00:54:13;9.47;;;2.60;;
5121;SDS011;2563;52.242;7.956;2022-11-25T00:56:38;21.20;;;4.13;;
5121;SDS011;2563;52.242;7.956;2022-11-25T00:59:03;12.43;;;2.70;;
5121;SDS011;2563;52.242;7.956;2022-11-25T01:01:29;10.27;;;2.50;;
5121;SDS011;2563;52.242;7.956;2022-11-25T01:03:54;11.93;;;2.97;;
5121;SDS011;2563;52.242;7.956;2022-11-25T01:06:20;12.97;;;2.40;;
5121;SDS011;2563;52.242;7.956;2022-11-25T01:08:46;17.57;;;3.10;;
5121;SDS011;2563;52.242;7.956;2022-11-25T01:11:13;16.13;;;2.77;;
5121;SDS011;2563;52.242;7.956;2022-11-25T01:13:40;8.30;;;3.23;;
5121;SDS011;2563;52.242;7.956;2022-11-25T01:16:06;6.83;;;2.70;;
5121;SDS011;2563;52.242;7.956;2022-11-25T01:18:34;6.23;;;1.83;;
5121;SDS011;2563;52.242;7.956;2022-11-25T01:21:42;15.27;;;2.97;;
5121;SDS011;2563;52.242;7.956;2022-11-25T01:23:50;18.80;;;3.17;;
5121;SDS011;2563;52.242;7.956;2022-11-25T01:26:18;12.80;;;2.60;;
5121;SDS011;2563;52.242;7.956;2022-11-25T01:28:45;16.43;;;2.90;;
5121;SDS011;2563;52.242;7.956;2022-11-25T01:31:15;12.67;;;2.30;;
5121;SDS011;2563;52.242;7.956;2022-11-25T01:33:43;8.53;;;2.70;;
5121;SDS011;2563;52.242;7.956;2022-11-25T01:36:10;8.67;;;2.70;;
5121;SDS011;2563;52.242;7.956;2022-11-25T01:38:40;7.70;;;2.57;;
5121;SDS011;2563;52.242;7.956;2022-11-25T01:41:08;13.57;;;2.50;;
5121;SDS011;2563;52.242;7.956;2022-11-25T01:43:35;10.40;;;2.53;;
5121;SDS011;2563;52.242;7.956;2022-11-25T01:49:00;7.30;;;1.90;;
5121;SDS011;2563;52.242;7.956;2022-11-25T01:53:58;11.13;;;2.53;;
5121;SDS011;2563;52.242;7.956;2022-11-25T01:56:27;8.83;;;2.03;;
5121;SDS011;2563;52.242;7.956;2022-11-25T01:58:57;12.07;;;3.33;;
5121;SDS011;2563;52.242;7.956;2022-11-25T02:01:23;11.40;;;2.37;;
5121;SDS011;2563;52.242;7.956;2022-11-25T02:03:49;13.97;;;2.57;;
5121;SDS011;2563;52.242;7.956;2022-11-25T02:06:22;17.17;;;3.00;;
5121;SDS011;2563;52.242;7.956;2022-11-25T02:08:50;20.20;;;2.67;;
5121;SDS011;2563;52.242;7.956;2022-11-25T02:11:19;11.53;;;2.13;;
5121;SDS011;2563;52.242;7.956;2022-11-25T02:13:49;17.03;;;2.50;;
5121;SDS011;2563;52.242;7.956;2022-11-25T02:16:15;9.60;;;2.10;;
5121;SDS011;2563;52.242;7.956;2022-11-25T02:18:41;12.40;;;2.60;;
5121;SDS011;2563;52.242;7.956;2022-11-25T02:21:06;9.43;;;2.07;;
5121;SDS011;2563;52.242;7.956;2022-11-25T02:23:38;8.47;;;2.43;;
5121;SDS011;2563;52.242;7.956;2022-11-25T02:26:09;12.40;;;3.00;;
5121;SDS011;2563;52.242;7.956;2022-11-25T02:28:35;12.20;;;2.50;;
5121;SDS011;2563;52.242;7.956;2022-11-25T02:31:01;14.30;;;3.17;;
5121;SDS011;2563;52.242;7.956;2022-11-25T02:33:26;14.37;;;2.73;;
5121;SDS011;2563;52.242;7.956;2022-11-25T02:38:34;9.50;;;2.03;;
5121;SDS011;2563;52.242;7.956;2022-11-25T02:43:28;12.83;;;2.27;;
5121;SDS011;2563;52.242;7.956;2022-11-25T02:45:58;8.17;;;2.40;;
5121;SDS011;2563;52.242;7.956;2022-11-25T02:48:34;16.30;;;2.93;;
5121;SDS011;2563;52.242;7.956;2022-11-25T02:51:02;8.00;;;2.20;;
5121;SDS011;2563;52.242;7.956;2022-11-25T02:53:28;11.23;;;2.30;;
5121;SDS011;2563;52.242;7.956;2022-11-25T02:55:53;9.10;;;2.60;;
5121;SDS011;2563;52.242;7.956;2022-11-25T02:58:18;9.10;;;2.00;;
5121;SDS011;2563;52.242;7.956;2022-11-25T03:00:44;7.40;;;2.20;;
5121;SDS011;2563;52.242;7.956;2022-11-25T03:03:10;9.10;;;1.87;;
5121;SDS011;2563;52.242;7.956;2022-11-25T03:05:36;9.10;;;1.83;;
5121;SDS011;2563;52.242;7.956;2022-11-25T03:08:02;21.47;;;2.53;;
5121;SDS011;2563;52.242;7.956;2022-11-25T03:10:28;6.47;;;1.80;;
5121;SDS011;2563;52.242;7.956;2022-11-25T03:12:54;12.50;;;2.07;;
5121;SDS011;2563;52.242;7.956;2022-11-25T03:15:20;8.10;;;1.80;;
5121;SDS011;2563;52.242;7.956;2022-11-25T03:17:45;5.70;;;1.90;;
5121;SDS011;2563;52.242;7.956;2022-11-25T03:20:11;10.40;;;1.77;;
5121;SDS011;2563;52.242;7.956;2022-11-25T03:22:37;14.10;;;2.20;;
5121;SDS011;2563;52.242;7.956;2022-11-25T03:25:03;12.90;;;3.13;;
5121;SDS011;2563;52.242;7.956;2022-11-25T03:27:29;8.07;;;1.50;;
5121;SDS011;2563;52.242;7.956;2022-11-25T03:29:57;8.27;;;2.27;;
5121;SDS011;2563;52.242;7.956;2022-11-25T03:32:22;12.00;;;2.27;;
5121;SDS011;2563;52.242;7.956;2022-11-25T03:34:47;12.77;;;2.50;;
5121;SDS011;2563;52.242;7.956;2022-11-25T03:37:13;9.43;;;1.93;;
5121;SDS011;2563;52.242;7.956;2022-11-25T03:39:38;8.47;;;2.23;;
5121;SDS011;2563;52.242;7.956;2022-11-25T03:42:03;15.47;;;2.73;;
5121;SDS011;2563;52.242;7.956;2022-11-25T03:44:29;11.40;;;2.07;;
5121;SDS011;2563;52.242;7.956;2022-11-25T03:46:54;7.30;;;1.97;;
5121;SDS011;2563;52.242;7.956;2022-11-25T03:49:19;12.13;;;2.23;;
5121;SDS011;2563;52.242;7.956;2022-11-25T03:51:46;8.87;;;2.27;;
5121;SDS011;2563;52.242;7.956;2022-11-25T03:54:12;5.90;;;2.00;;
5121;SDS011;2563;52.242;7.956;2022-11-25T03:56:37;11.03;;;2.30;;
5121;SDS011;2563;52.242;7.956;2022-11-25T03:59:02;9.60;;;2.40;;
5121;SDS011;2563;52.242;7.956;2022-11-25T04:01:31;13.57;;;2.03;;
5121;SDS011;2563;52.242;7.956;2022-11-25T04:03:56;8.03;;;2.10;;
5121;SDS011;2563;52.242;7.956;2022-11-25T04:06:21;11.50;;;2.67;;
5121;SDS011;2563;52.242;7.956;2022-11-25T04:08:48;8.77;;;2.10;;
5121;SDS011;2563;52.242;7.956;2022-11-25T04:11:14;9.70;;;2.03;;
5121;SDS011;2563;52.242;7.956;2022-11-25T04:13:39;9.60;;;2.37;;
5121;SDS011;2563;52.242;7.956;2022-11-25T04:16:04;20.73;;;2.63;;
5121;SDS011;2563;52.242;7.956;2022-11-25T04:18:30;13.63;;;2.70;;
5121;SDS011;2563;52.242;7.956;2022-11-25T04:20:55;13.93;;;3.57;;
5121;SDS011;2563;52.242;7.956;2022-11-25T04:23:21;16.77;;;2.33;;
5121;SDS011;2563;52.242;7.956;2022-11-25T04:25:48;9.40;;;1.90;;
5121;SDS011;2563;52.242;7.956;2022-11-25T04:28:14;11.97;;;2.27;;
5121;SDS011;2563;52.242;7.956;2022-11-25T04:30:39;14.60;;;2.40;;
5121;SDS011;2563;52.242;7.956;2022-11-25T04:33:05;9.07;;;1.87;;
5121;SDS011;2563;52.242;7.956;2022-11-25T04:35:30;10.77;;;1.80;;
5121;SDS011;2563;52.242;7.956;2022-11-25T04:37:56;11.07;;;3.00;;
5121;SDS011;2563;52.242;7.956;2022-11-25T04:40:21;9.20;;;2.40;;
5121;SDS011;2563;52.242;7.956;2022-11-25T04:42:47;10.00;;;2.10;;
5121;SDS011;2563;52.242;7.956;2022-11-25T04:45:13;15.00;;;3.53;;
5121;SDS011;2563;52.242;7.956;2022-11-25T04:47:40;13.93;;;2.60;;
5121;SDS011;2563;52.242;7.956;2022-11-25T04:50:08;7.40;;;2.87;;
5121;SDS011;2563;52.242;7.956;2022-11-25T04:52:37;11.73;;;2.20;;
5121;SDS011;2563;52.242;7.956;2022-11-25T04:55:02;7.90;;;2.13;;
5121;SDS011;2563;52.242;7.956;2022-11-25T04:57:28;14.97;;;2.17;;
5121;SDS011;2563;52.242;7.956;2022-11-25T04:59:54;12.30;;;1.90;;
5121;SDS011;2563;52.242;7.956;2022-11-25T05:02:20;9.33;;;2.00;;
5121;SDS011;2563;52.242;7.956;2022-11-25T05:04:48;11.37;;;2.00;;
5121;SDS011;2563;52.242;7.956;2022-11-25T05:07:15;9.40;;;1.87;;
5121;SDS011;2563;52.242;7.956;2022-11-25T05:09:43;7.10;;;2.00;;
5121;SDS011;2563;52.242;7.956;2022-11-25T05:12:10;11.23;;;3.10;;
5121;SDS011;2563;52.242;7.956;2022-11-25T05:14:38;7.93;;;2.63;;
5121;SDS011;2563;52.242;7.956;2022-11-25T05:17:04;7.77;;;2.20;;
5121;SDS011;2563;52.242;7.956;2022-11-25T05:19:30;13.87;;;2.23;;
5121;SDS011;2563;52.242;7.956;2022-11-25T05:21:57;12.23;;;2.40;;
5121;SDS011;2563;52.242;7.956;2022-11-25T05:24:23;9.83;;;2.27;;
5121;SDS011;2563;52.242;7.956;2022-11-25T05:26:49;20.57;;;2.97;;
5121;SDS011;2563;52.242;7.956;2022-11-25T05:29:14;10.77;;;1.53;;
5121;SDS011;2563;52.242;7.956;2022-11-25T05:31:40;7.40;;;2.30;;
5121;SDS011;2563;52.242;7.956;2022-11-25T05:34:05;14.40;;;2.23;;
5121;SDS011;2563;52.242;7.956;2022-11-25T05:36:31;7.90;;;1.73;;
5121;SDS011;2563;52.242;7.956;2022-11-25T05:38:56;8.97;;;2.23;;
5121;SDS011;2563;52.242;7.956;2022-11-25T05:41:23;7.80;;;2.30;;
5121;SDS011;2563;52.242;7.956;2022-11-25T05:43:49;10.20;;;2.40;;
5121;SDS011;2563;52.242;7.956;2022-11-25T05:46:14;19.27;;;3.00;;
5121;SDS011;2563;52.242;7.956;2022-11-25T05:48:40;6.67;;;2.17;;
5121;SDS011;2563;52.242;7.956;2022-11-25T05:51:05;12.67;;;2.50;;
5121;SDS011;2563;52.242;7.956;2022-11-25T05:53:33;8.00;;;2.20;;
5121;SDS011;2563;52.242;7.956;2022-11-25T05:56:01;14.97;;;2.87;;
5121;SDS011;2563;52.242;7.956;2022-11-25T05:58:28;16.73;;;2.50;;
5121;SDS011;2563;52.242;7.956;2022-11-25T06:00:54;9.23;;;2.03;;
5121;SDS011;2563;52.242;7.956;2022-11-25T06:03:22;8.87;;;2.60;;
5121;SDS011;2563;52.242;7.956;2022-11-25T06:05:49;6.70;;;2.03;;
5121;SDS011;2563;52.242;7.956;2022-11-25T06:08:14;11.43;;;2.23;;
5121;SDS011;2563;52.242;7.956;2022-11-25T06:10:39;9.17;;;2.30;;
5121;SDS011;2563;52.242;7.956;2022-11-25T06:13:05;11.83;;;2.00;;
5121;SDS011;2563;52.242;7.956;2022-11-25T06:15:32;9.13;;;2.13;;
5121;SDS011;2563;52.242;7.956;2022-11-25T06:17:58;6.10;;;1.77;;
5121;SDS011;2563;52.242;7.956;2022-11-25T06:20:23;9.43;;;2.33;;
5121;SDS011;2563;52.242;7.956;2022-11-25T06:22:48;10.37;;;2.63;;
5121;SDS011;2563;52.242;7.956;2022-11-25T06:25:14;11.53;;;1.93;;
5121;SDS011;2563;52.242;7.956;2022-11-25T06:27:40;7.37;;;2.80;;
5121;SDS011;2563;52.242;7.956;2022-11-25T06:30:05;7.90;;;2.10;;
5121;SDS011;2563;52.242;7.956;2022-11-25T06:32:31;11.43;;;2.33;;
5121;SDS011;2563;52.242;7.956;2022-11-25T06:34:57;11.57;;;2.60;;
5121;SDS011;2563;52.242;7.956;2022-11-25T06:37:22;6.93;;;2.27;;
5121;SDS011;2563;52.242;7.956;2022-11-25T06:39:47;10.60;;;2.33;;
5121;SDS011;2563;52.242;7.956;2022-11-25T06:42:13;21.17;;;2.53;;
5121;SDS011;2563;52.242;7.956;2022-11-25T06:44:38;15.97;;;2.47;;
5121;SDS011;2563;52.242;7.956;2022-11-25T06:47:03;11.63;;;2.20;;
5121;SDS011;2563;52.242;7.956;2022-11-25T06:49:29;9.57;;;2.37;;
5121;SDS011;2563;52.242;7.956;2022-11-25T06:51:54;8.27;;;2.20;;
5121;SDS011;2563;52.242;7.956;2022-11-25T06:54:20;12.93;;;2.93;;
5121;SDS011;2563;52.242;7.956;2022-11-25T06:56:45;7.47;;;2.20;;
5121;SDS011;2563;52.242;7.956;2022-11-25T06:59:15;12.50;;;2.80;;
5121;SDS011;2563;52.242;7.956;2022-11-25T07:01:41;9.40;;;2.40;;
5121;SDS011;2563;52.242;7.956;2022-11-25T07:04:07;12.50;;;2.57;;
5121;SDS011;2563;52.242;7.956;2022-11-25T07:06:32;11.00;;;2.20;;
5121;SDS011;2563;52.242;7.956;2022-11-25T07:08:58;10.03;;;2.80;;
5121;SDS011;2563;52.242;7.956;2022-11-25T07:13:52;11.47;;;2.00;;
5121;SDS011;2563;52.242;7.956;2022-11-25T07:16:20;11.10;;;2.87;;
5121;SDS011;2563;52.242;7.956;2022-11-25T07:18:45;15.97;;;2.40;;
5121;SDS011;2563;52.242;7.956;2022-11-25T07:21:13;15.53;;;2.40;;
5121;SDS011;2563;52.242;7.956;2022-11-25T07:23:41;13.13;;;2.67;;
5121;SDS011;2563;52.242;7.956;2022-11-25T07:26:09;15.10;;;2.90;;
5121;SDS011;2563;52.242;7.956;2022-11-25T07:28:36;10.00;;;3.70;;
5121;SDS011;2563;52.242;7.956;2022-11-25T07:31:07;8.47;;;2.50;;
5121;SDS011;2563;52.242;7.956;2022-11-25T07:33:34;12.40;;;2.90;;
5121;SDS011;2563;52.242;7.956;2022-11-25T07:36:03;13.13;;;2.50;;
5121;SDS011;2563;52.242;7.956;2022-11-25T07:38:30;15.33;;;3.20;;
5121;SDS011;2563;52.242;7.956;2022-11-25T07:41:01;11.10;;;2.63;;
5121;SDS011;2563;52.242;7.956;2022-11-25T07:43:28;9.20;;;1.93;;
5121;SDS011;2563;52.242;7.956;2022-11-25T07:45:53;11.07;;;2.83;;
5121;SDS011;2563;52.242;7.956;2022-11-25T07:48:18;8.00;;;2.27;;
5121;SDS011;2563;52.242;7.956;2022-11-25T07:50:44;9.43;;;2.53;;
5121;SDS011;2563;52.242;7.956;2022-11-25T07:53:10;11.70;;;3.23;;
5121;SDS011;2563;52.242;7.956;2022-11-25T07:55:36;8.60;;;2.60;;
5121;SDS011;2563;52.242;7.956;2022-11-25T07:58:01;10.97;;;2.90;;
5121;SDS011;2563;52.242;7.956;2022-11-25T08:00:27;12.33;;;3.83;;
5121;SDS011;2563;52.242;7.956;2022-11-25T08:02:52;13.33;;;3.03;;
5121;SDS011;2563;52.242;7.956;2022-11-25T08:05:18;20.17;;;3.77;;
5121;SDS011;2563;52.242;7.956;2022-11-25T08:07:43;12.73;;;3.00;;
5121;SDS011;2563;52.242;7.956;2022-11-25T08:10:09;13.20;;;3.47;;
5121;SDS011;2563;52.242;7.956;2022-11-25T08:12:35;10.87;;;3.40;;
5121;SDS011;2563;52.242;7.956;2022-11-25T08:15:00;14.17;;;2.97;;
5121;SDS011;2563;52.242;7.956;2022-11-25T08:17:25;10.07;;;2.80;;
5121;SDS011;2563;52.242;7.956;2022-11-25T08:19:51;9.77;;;2.60;;
5121;SDS011;2563;52.242;7.956;2022-11-25T08:22:16;8.47;;;2.70;;
5121;SDS011;2563;52.242;7.956;2022-11-25T08:24:41;11.20;;;3.13;;
5121;SDS011;2563;52.242;7.956;2022-11-25T08:27:07;12.53;;;2.60;;
5121;SDS011;2563;52.242;7.956;2022-11-25T08:29:32;16.70;;;2.53;;
5121;SDS011;2563;52.242;7.956;2022-11-25T08:31:57;11.30;;;2.50;;
5121;SDS011;2563;52.242;7.956;2022-11-25T08:34:23;10.53;;;2.70;;
5121;SDS011;2563;52.242;7.956;2022-11-25T08:36:49;16.20;;;3.50;;
5121;SDS011;2563;52.242;7.956;2022-11-25T08:39:15;10.80;;;2.80;;
5121;SDS011;2563;52.242;7.956;2022-11-25T08:41:41;8.00;;;2.80;;
5121;SDS011;2563;52.242;7.956;2022-11-25T08:44:07;13.70;;;2.87;;
5121;SDS011;2563;52.242;7.956;2022-11-25T08:46:34;18.40;;;3.10;;
5121;SDS011;2563;52.242;7.956;2022-11-25T08:49:02;13.80;;;3.20;;
5121;SDS011;2563;52.242;7.956;2022-11-25T08:51:30;8.83;;;2.57;;
5121;SDS011;2563;52.242;7.956;2022-11-25T08:53:57;8.83;;;2.57;;
5121;SDS011;2563;52.242;7.956;2022-11-25T08:56:23;12.10;;;3.20;;
5121;SDS011;2563;52.242;7.956;2022-11-25T08:58:49;7.53;;;2.60;;
5121;SDS011;2563;52.242;7.956;2022-11-25T09:01:15;13.53;;;2.70;;
5121;SDS011;2563;52.242;7.956;2022-11-25T09:03:43;9.03;;;2.27;;
5121;SDS011;2563;52.242;7.956;2022-11-25T09:06:11;8.10;;;2.57;;
5121;SDS011;2563;52.242;7.956;2022-11-25T09:08:38;8.20;;;2.60;;
5121;SDS011;2563;52.242;7.956;2022-11-25T09:11:05;12.90;;;3.00;;
5121;SDS011;2563;52.242;7.956;2022-11-25T09:13:32;9.73;;;2.80;;
5121;SDS011;2563;52.242;7.956;2022-11-25T09:15:57;10.37;;;3.30;;
5121;SDS011;2563;52.242;7.956;2022-11-25T09:18:22;18.67;;;4.50;;
5121;SDS011;2563;52.242;7.956;2022-11-25T09:20:50;11.67;;;3.30;;
5121;SDS011;2563;52.242;7.956;2022-11-25T09:23:16;11.00;;;3.30;;
5121;SDS011;2563;52.242;7.956;2022-11-25T09:25:49;14.10;;;3.80;;
5121;SDS011;2563;52.242;7.956;2022-11-25T09:28:19;10.43;;;3.30;;
5121;SDS011;2563;52.242;7.956;2022-11-25T09:30:45;19.27;;;4.50;;
5121;SDS011;2563;52.242;7.956;2022-11-25T09:33:10;14.03;;;3.40;;
5121;SDS011;2563;52.242;7.956;2022-11-25T09:35:36;11.63;;;3.13;;
5121;SDS011;2563;52.242;7.956;2022-11-25T09:38:01;15.97;;;3.40;;
5121;SDS011;2563;52.242;7.956;2022-11-25T09:47:03;14.13;;;4.13;;
5121;SDS011;2563;52.242;7.956;2022-11-25T09:52:26;14.43;;;3.70;;
5121;SDS011;2563;52.242;7.956;2022-11-25T09:55:04;10.80;;;3.30;;
5121;SDS011;2563;52.242;7.956;2022-11-25T10:00:37;10.33;;;3.50;;
5121;SDS011;2563;52.242;7.956;2022-11-25T10:03:09;14.97;;;4.00;;
5121;SDS011;2563;52.242;7.956;2022-11-25T10:05:44;9.80;;;3.87;;
5121;SDS011;2563;52.242;7.956;2022-11-25T10:08:18;12.23;;;4.03;;
5121;SDS011;2563;52.242;7.956;2022-11-25T10:10:57;16.53;;;3.83;;
5121;SDS011;2563;52.242;7.956;2022-11-25T10:16:00;9.70;;;3.70;;
5121;SDS011;2563;52.242;7.956;2022-11-25T10:18:38;17.97;;;4.07;;
5121;SDS011;2563;52.242;7.956;2022-11-25T10:21:11;13.47;;;3.97;;
5121;SDS011;2563;52.242;7.956;2022-11-25T10:23:36;11.67;;;4.27;;
5121;SDS011;2563;52.242;7.956;2022-11-25T10:28:39;15.60;;;4.47;;
5121;SDS011;2563;52.242;7.956;2022-11-25T10:31:28;14.23;;;4.80;;
5121;SDS011;2563;52.242;7.956;2022-11-25T10:33:59;12.33;;;4.40;;
5121;SDS011;2563;52.242;7.956;2022-11-25T10:36:30;15.77;;;5.17;;
5121;SDS011;2563;52.242;7.956;2022-11-25T10:39:02;13.70;;;4.97;;
5121;SDS011;2563;52.242;7.956;2022-11-25T10:41:32;11.17;;;5.23;;
5121;SDS011;2563;52.242;7.956;2022-11-25T10:44:11;13.70;;;5.73;;
5121;SDS011;2563;52.242;7.956;2022-11-25T10:46:56;15.23;;;5.47;;
5121;SDS011;2563;52.242;7.956;2022-11-25T10:52:21;12.63;;;6.30;;
5121;SDS011;2563;52.242;7.956;2022-11-25T10:55:30;14.60;;;5.97;;
5121;SDS011;2563;52.242;7.956;2022-11-25T10:57:39;17.93;;;5.00;;
5121;SDS011;2563;52.242;7.956;2022-11-25T11:00:05;13.43;;;5.63;;
5121;SDS011;2563;52.242;7.956;2022-11-25T11:02:39;12.50;;;5.00;;
5121;SDS011;2563;52.242;7.956;2022-11-25T11:07:38;16.13;;;5.53;;
5121;SDS011;2563;52.242;7.956;2022-11-25T11:10:22;11.40;;;5.40;;
5121;SDS011;2563;52.242;7.956;2022-11-25T11:15:20;13.47;;;5.67;;
5121;SDS011;2563;52.242;7.956;2022-11-25T11:17:47;19.50;;;6.00;;
5121;SDS011;2563;52.242;7.956;2022-11-25T11:23:11;15.00;;;5.40;;
5121;SDS011;2563;52.242;7.956;2022-11-25T11:25:42;11.53;;;5.50;;
5121;SDS011;2563;52.242;7.956;2022-11-25T11:28:25;19.10;;;5.37;;
5121;SDS011;2563;52.242;7.956;2022-11-25T11:31:18;10.90;;;5.20;;
5121;SDS011;2563;52.242;7.956;2022-11-25T11:42:01;13.17;;;5.40;;
5121;SDS011;2563;52.242;7.956;2022-11-25T11:47:22;11.43;;;5.93;;
5121;SDS011;2563;52.242;7.956;2022-11-25T11:50:08;14.77;;;5.13;;
5121;SDS011;2563;52.242;7.956;2022-11-25T12:04:04;9.40;;;4.23;;
5121;SDS011;2563;52.242;7.956;2022-11-25T12:06:39;12.53;;;4.67;;
5121;SDS011;2563;52.242;7.956;2022-11-25T12:09:12;12.60;;;5.00;;
5121;SDS011;2563;52.242;7.956;2022-11-25T12:11:43;10.30;;;4.20;;
5121;SDS011;2563;52.242;7.956;2022-11-25T12:14:19;14.20;;;5.50;;
5121;SDS011;2563;52.242;7.956;2022-11-25T12:17:16;11.00;;;4.20;;
5121;SDS011;2563;52.242;7.956;2022-11-25T12:19:51;10.10;;;3.30;;
5121;SDS011;2563;52.242;7.956;2022-11-25T12:22:24;16.07;;;4.33;;
5121;SDS011;2563;52.242;7.956;2022-11-25T12:25:17;8.20;;;3.53;;
5121;SDS011;2563;52.242;7.956;2022-11-25T12:27:52;16.80;;;6.33;;
5121;SDS011;2563;52.242;7.956;2022-11-25T12:30:33;13.13;;;3.53;;
5121;SDS011;2563;52.242;7.956;2022-11-25T12:33:20;12.10;;;4.10;;
5121;SDS011;2563;52.242;7.956;2022-11-25T12:38:44;12.30;;;4.00;;
5121;SDS011;2563;52.242;7.956;2022-11-25T12:44:16;8.27;;;3.10;;
5121;SDS011;2563;52.242;7.956;2022-11-25T12:46:47;13.37;;;3.23;;
5121;SDS011;2563;52.242;7.956;2022-11-25T12:49:15;9.43;;;3.97;;
5121;SDS011;2563;52.242;7.956;2022-11-25T13:07:41;8.50;;;4.00;;
5121;SDS011;2563;52.242;7.956;2022-11-25T13:10:46;8.93;;;3.00;;
5121;SDS011;2563;52.242;7.956;2022-11-25T13:13:35;9.40;;;3.70;;
5121;SDS011;2563;52.242;7.956;2022-11-25T13:16:11;12.00;;;2.60;;
5121;SDS011;2563;52.242;7.956;2022-11-25T13:18:39;8.77;;;3.10;;
5121;SDS011;2563;52.242;7.956;2022-11-25T13:21:10;12.50;;;4.27;;
5121;SDS011;2563;52.242;7.956;2022-11-25T13:23:40;10.37;;;3.93;;
5121;SDS011;2563;52.242;7.956;2022-11-25T13:36:56;9.07;;;2.60;;
5121;SDS011;2563;52.242;7.956;2022-11-25T13:39:35;8.63;;;2.47;;
5121;SDS011;2563;52.242;7.956;2022-11-25T13:42:04;7.30;;;2.30;;
5121;SDS011;2563;52.242;7.956;2022-11-25T13:44:54;17.23;;;3.03;;
5121;SDS011;2563;52.242;7.956;2022-11-25T13:47:34;6.23;;;2.17;;
5121;SDS011;2563;52.242;7.956;2022-11-25T13:52:46;9.70;;;3.10;;
5121;SDS011;2563;52.242;7.956;2022-11-25T13:57:43;13.13;;;2.60;;
5121;SDS011;2563;52.242;7.956;2022-11-25T14:08:44;7.83;;;2.33;;
5121;SDS011;2563;52.242;7.956;2022-11-25T14:16:31;13.80;;;2.70;;
5121;SDS011;2563;52.242;7.956;2022-11-25T14:24:47;10.63;;;2.97;;
5121;SDS011;2563;52.242;7.956;2022-11-25T14:27:23;17.50;;;3.80;;
5121;SDS011;2563;52.242;7.956;2022-11-25T14:29:51;12.30;;;3.73;;
5121;SDS011;2563;52.242;7.956;2022-11-25T14:32:19;11.03;;;2.57;;
5121;SDS011;2563;52.242;7.956;2022-11-25T14:35:04;9.77;;;2.63;;
5121;SDS011;2563;52.242;7.956;2022-11-25T14:37:42;7.20;;;2.70;;
5121;SDS011;2563;52.242;7.956;2022-11-25T14:43:14;14.20;;;3.50;;
5121;SDS011;2563;52.242;7.956;2022-11-25T14:45:42;12.53;;;4.07;;
5121;SDS011;2563;52.242;7.956;2022-11-25T14:48:22;10.30;;;3.27;;
5121;SDS011;2563;52.242;7.956;2022-11-25T14:50:57;7.70;;;2.53;;
5121;SDS011;2563;52.242;7.956;2022-11-25T14:53:25;11.37;;;3.20;;
5121;SDS011;2563;52.242;7.956;2022-11-25T14:55:51;16.33;;;3.07;;
5121;SDS011;2563;52.242;7.956;2022-11-25T14:58:18;10.70;;;2.73;;
5121;SDS011;2563;52.242;7.956;2022-11-25T15:03:22;10.60;;;3.30;;
5121;SDS011;2563;52.242;7.956;2022-11-25T15:05:55;11.47;;;3.20;;
5121;SDS011;2563;52.242;7.956;2022-11-25T15:08:37;13.07;;;3.87;;
5121;SDS011;2563;52.242;7.956;2022-11-25T15:11:09;13.70;;;3.60;;
5121;SDS011;2563;52.242;7.956;2022-11-25T15:13:42;14.80;;;4.27;;
5121;SDS011;2563;52.242;7.956;2022-11-25T15:16:14;12.67;;;2.90;;
5121;SDS011;2563;52.242;7.956;2022-11-25T15:18:47;14.87;;;3.93;;
5121;SDS011;2563;52.242;7.956;2022-11-25T15:21:13;11.50;;;3.63;;
5121;SDS011;2563;52.242;7.956;2022-11-25T15:23:41;14.67;;;3.27;;
5121;SDS011;2563;52.242;7.956;2022-11-25T15:26:23;14.60;;;4.00;;
5121;SDS011;2563;52.242;7.956;2022-11-25T15:28:53;11.90;;;4.33;;
5121;SDS011;2563;52.242;7.956;2022-11-25T15:31:30;8.30;;;3.00;;
5121;SDS011;2563;52.242;7.956;2022-11-25T15:34:08;15.23;;;3.10;;
5121;SDS011;2563;52.242;7.956;2022-11-25T15:36:36;10.30;;;3.10;;
5121;SDS011;2563;52.242;7.956;2022-11-25T15:41:44;25.10;;;2.73;;
5121;SDS011;2563;52.242;7.956;2022-11-25T15:44:17;11.90;;;2.97;;
5121;SDS011;2563;52.242;7.956;2022-11-25T15:46:53;8.17;;;2.77;;
5121;SDS011;2563;52.242;7.956;2022-11-25T15:49:23;18.70;;;5.17;;
5121;SDS011;2563;52.242;7.956;2022-11-25T15:54:26;9.57;;;3.27;;
5121;SDS011;2563;52.242;7.956;2022-11-25T15:56:56;12.30;;;3.90;;
5121;SDS011;2563;52.242;7.956;2022-11-25T16:02:28;15.63;;;4.87;;
5121;SDS011;2563;52.242;7.956;2022-11-25T16:10:31;23.40;;;9.27;;
5121;SDS011;2563;52.242;7.956;2022-11-25T16:29:19;21.23;;;3.80;;
5121;SDS011;2563;52.242;7.956;2022-11-25T16:31:51;11.17;;;3.90;;
5121;SDS011;2563;52.242;7.956;2022-11-25T16:34:17;14.03;;;4.10;;
5121;SDS011;2563;52.242;7.956;2022-11-25T16:36:44;9.60;;;3.40;;
5121;SDS011;2563;52.242;7.956;2022-11-25T16:39:09;12.20;;;4.20;;
5121;SDS011;2563;52.242;7.956;2022-11-25T16:41:35;16.63;;;4.53;;
5121;SDS011;2563;52.242;7.956;2022-11-25T16:44:04;11.40;;;5.03;;
5121;SDS011;2563;52.242;7.956;2022-11-25T16:46:37;9.83;;;4.10;;
5121;SDS011;2563;52.242;7.956;2022-11-25T16:49:12;15.17;;;4.23;;
5121;SDS011;2563;52.242;7.956;2022-11-25T16:51:38;10.50;;;4.17;;
5121;SDS011;2563;52.242;7.956;2022-11-25T16:54:04;9.20;;;3.60;;
5121;SDS011;2563;52.242;7.956;2022-11-25T16:56:29;11.80;;;3.80;;
5121;SDS011;2563;52.242;7.956;2022-11-25T16:58:55;12.50;;;3.50;;
5121;SDS011;2563;52.242;7.956;2022-11-25T17:01:22;9.37;;;3.33;;
5121;SDS011;2563;52.242;7.956;2022-11-25T17:03:51;14.93;;;4.03;;
5121;SDS011;2563;52.242;7.956;2022-11-25T17:06:18;13.13;;;4.17;;
5121;SDS011;2563;52.242;7.956;2022-11-25T17:08:45;11.20;;;4.33;;
5121;SDS011;2563;52.242;7.956;2022-11-25T17:11:52;13.93;;;4.23;;
5121;SDS011;2563;52.242;7.956;2022-11-25T17:14:02;14.07;;;3.90;;
5121;SDS011;2563;52.242;7.956;2022-11-25T17:16:30;10.80;;;3.80;;
5121;SDS011;2563;52.242;7.956;2022-11-25T17:18:56;11.70;;;3.87;;
5121;SDS011;2563;52.242;7.956;2022-11-25T17:21:23;12.50;;;3.80;;
5121;SDS011;2563;52.242;7.956;2022-11-25T17:23:52;12.43;;;3.87;;
5121;SDS011;2563;52.242;7.956;2022-11-25T17:26:20;12.70;;;4.60;;
5121;SDS011;2563;52.242;7.956;2022-11-25T17:28:54;19.37;;;4.20;;
5121;SDS011;2563;52.242;7.956;2022-11-25T17:31:24;17.80;;;4.90;;
5121;SDS011;2563;52.242;7.956;2022-11-25T17:33:51;11.93;;;4.30;;
5121;SDS011;2563;52.242;7.956;2022-11-25T17:36:17;20.40;;;4.00;;
5121;SDS011;2563;52.242;7.956;2022-11-25T17:38:43;7.27;;;3.70;;
5121;SDS011;2563;52.242;7.956;2022-11-25T17:41:12;16.53;;;5.40;;
5121;SDS011;2563;52.242;7.956;2022-11-25T17:43:39;19.83;;;4.77;;
5121;SDS011;2563;52.242;7.956;2022-11-25T17:46:08;15.07;;;5.37;;
5121;SDS011;2563;52.242;7.956;2022-11-25T17:48:38;16.57;;;5.67;;
5121;SDS011;2563;52.242;7.956;2022-11-25T17:51:06;27.57;;;5.50;;
5121;SDS011;2563;52.242;7.956;2022-11-25T17:53:32;13.77;;;5.07;;